createdAt,value
2023-01-23T00:00:48.140Z,-0.20
2023-01-23T00:03:15.089Z,-0.20
2023-01-23T00:05:42.024Z,-0.20
2023-01-23T00:08:09.057Z,-0.20
2023-01-23T00:10:37.548Z,-0.20
2023-01-23T00:13:05.041Z,-0.20
2023-01-23T00:15:33.371Z,-0.10
2023-01-23T00:18:00.361Z,-0.10
2023-01-23T00:20:27.436Z,-0.10
2023-01-23T00:22:55.064Z,-0.10
2023-01-23T00:25:22.065Z,-0.10
2023-01-23T00:27:49.035Z,-0.10
2023-01-23T00:30:16.390Z,-0.10
2023-01-23T00:32:43.341Z,-0.10
2023-01-23T00:35:10.475Z,-0.10
2023-01-23T00:37:37.415Z,-0.10
2023-01-23T00:40:04.936Z,-0.10
2023-01-23T00:42:31.871Z,-0.10
2023-01-23T00:44:58.970Z,-0.10
2023-01-23T00:47:26.283Z,-0.10
2023-01-23T00:49:57.707Z,-0.10
2023-01-23T00:52:25.383Z,-0.20
2023-01-23T00:54:52.363Z,-0.20
2023-01-23T00:57:19.335Z,-0.20
2023-01-23T00:59:46.285Z,-0.20
2023-01-23T01:02:13.350Z,-0.20
2023-01-23T01:04:40.308Z,-0.10
2023-01-23T01:07:07.378Z,-0.10
2023-01-23T01:09:34.297Z,-0.10
2023-01-23T01:12:01.352Z,-0.10
2023-01-23T01:14:28.267Z,-0.10
2023-01-23T01:16:55.388Z,-0.10
2023-01-23T01:19:22.296Z,-0.10
2023-01-23T01:21:49.364Z,-0.10
2023-01-23T01:24:16.371Z,-0.10
2023-01-23T01:26:43.446Z,-0.10
2023-01-23T01:29:10.527Z,-0.10
2023-01-23T01:31:37.586Z,-0.10
2023-01-23T01:34:04.637Z,-0.10
2023-01-23T01:36:31.629Z,-0.10
2023-01-23T01:38:58.621Z,-0.10
2023-01-23T01:41:25.732Z,-0.10
2023-01-23T01:43:57.131Z,-0.10
2023-01-23T01:46:29.757Z,-0.10
2023-01-23T01:49:18.600Z,-0.10
2023-01-23T01:52:10.410Z,-0.10
2023-01-23T01:54:55.531Z,-0.10
2023-01-23T01:57:24.699Z,0.00
2023-01-23T02:00:00.317Z,0.00
2023-01-23T02:02:56.227Z,-0.10
2023-01-23T02:05:30.379Z,-0.10
2023-01-23T02:08:32.662Z,-0.10
2023-01-23T02:11:02.237Z,-0.10
2023-01-23T02:13:39.415Z,-0.10
2023-01-23T02:16:08.682Z,-0.10
2023-01-23T02:18:38.673Z,-0.10
2023-01-23T02:21:07.963Z,-0.10
2023-01-23T02:23:43.863Z,-0.10
2023-01-23T02:26:18.458Z,-0.10
2023-01-23T02:28:47.994Z,0.00
2023-01-23T02:31:15.708Z,0.00
2023-01-23T02:33:48.498Z,0.00
2023-01-23T02:36:16.777Z,-0.10
2023-01-23T02:39:06.966Z,-0.10
2023-01-23T02:41:40.085Z,-0.10
2023-01-23T02:44:17.902Z,-0.10
2023-01-23T02:46:45.018Z,-0.10
2023-01-23T02:49:12.179Z,-0.10
2023-01-23T02:51:39.165Z,0.00
2023-01-23T02:54:06.396Z,0.00
2023-01-23T02:56:34.109Z,0.00
2023-01-23T02:59:19.819Z,0.00
2023-01-23T03:01:46.935Z,0.00
2023-01-23T03:04:13.996Z,0.00
2023-01-23T03:06:40.979Z,0.00
2023-01-23T03:09:17.707Z,0.00
2023-01-23T03:11:46.427Z,0.00
2023-01-23T03:14:19.361Z,0.00
2023-01-23T03:16:54.179Z,0.00
2023-01-23T03:19:23.809Z,0.00
2023-01-23T03:21:51.984Z,0.00
2023-01-23T03:24:19.765Z,0.00
2023-01-23T03:26:48.819Z,0.00
2023-01-23T03:29:35.595Z,0.10
2023-01-23T03:32:03.370Z,0.10
2023-01-23T03:34:31.540Z,0.00
2023-01-23T03:36:59.690Z,0.10
2023-01-23T03:39:45.620Z,0.10
2023-01-23T03:42:12.607Z,0.10
2023-01-23T03:44:39.940Z,0.00
2023-01-23T03:47:07.320Z,0.00
2023-01-23T03:49:34.258Z,0.00
2023-01-23T03:52:01.673Z,0.00
2023-01-23T03:54:28.646Z,0.00
2023-01-23T03:56:55.964Z,0.00
2023-01-23T03:59:22.933Z,-0.10
2023-01-23T04:01:49.981Z,-0.10
2023-01-23T04:04:17.066Z,-0.10
2023-01-23T04:06:44.016Z,0.00
2023-01-23T04:09:11.077Z,0.00
2023-01-23T04:11:37.983Z,0.00
2023-01-23T04:14:04.885Z,0.10
2023-01-23T04:16:31.949Z,0.00
2023-01-23T04:18:58.926Z,0.00
2023-01-23T04:21:26.076Z,0.10
2023-01-23T04:23:53.012Z,0.00
2023-01-23T04:26:20.016Z,0.10
2023-01-23T04:28:46.926Z,0.10
2023-01-23T04:31:14.000Z,0.10
2023-01-23T04:33:40.962Z,0.00
2023-01-23T04:36:08.360Z,0.00
2023-01-23T04:38:35.428Z,0.10
2023-01-23T04:41:03.606Z,0.00
2023-01-23T04:43:30.850Z,0.00
2023-01-23T04:45:57.977Z,0.00
2023-01-23T04:48:25.186Z,0.00
2023-01-23T04:50:52.574Z,0.10
2023-01-23T04:53:19.905Z,0.00
2023-01-23T04:55:49.746Z,0.00
2023-01-23T04:58:18.580Z,0.00
2023-01-23T05:00:46.360Z,0.00
2023-01-23T05:03:14.252Z,0.00
2023-01-23T05:05:42.881Z,0.00
2023-01-23T05:08:11.516Z,0.00
2023-01-23T05:10:38.680Z,0.00
2023-01-23T05:13:06.331Z,0.00
2023-01-23T05:15:33.317Z,0.00
2023-01-23T05:18:00.682Z,-0.10
2023-01-23T05:20:27.653Z,-0.10
2023-01-23T05:22:55.282Z,0.00
2023-01-23T05:25:26.659Z,0.00
2023-01-23T05:27:53.657Z,0.00
2023-01-23T05:30:22.905Z,0.00
2023-01-23T05:32:49.976Z,0.00
2023-01-23T05:35:17.790Z,0.00
2023-01-23T05:37:48.946Z,0.00
2023-01-23T05:40:15.977Z,-0.10
2023-01-23T05:42:42.940Z,-0.10
2023-01-23T05:45:10.410Z,-0.10
2023-01-23T05:47:37.931Z,0.00
2023-01-23T05:50:08.132Z,0.00
2023-01-23T05:52:36.007Z,-0.10
2023-01-23T05:55:03.162Z,-0.10
2023-01-23T05:57:30.154Z,-0.10
2023-01-23T05:59:57.169Z,-0.10
2023-01-23T06:02:24.130Z,-0.10
2023-01-23T06:04:51.200Z,-0.10
2023-01-23T06:07:19.611Z,-0.10
2023-01-23T06:09:46.866Z,-0.10
2023-01-23T06:12:14.041Z,-0.10
2023-01-23T06:14:40.958Z,-0.10
2023-01-23T06:17:08.649Z,-0.10
2023-01-23T06:19:35.674Z,0.00
2023-01-23T06:22:02.733Z,-0.10
2023-01-23T06:24:29.885Z,-0.10
2023-01-23T06:26:56.871Z,-0.10
2023-01-23T06:29:23.911Z,-0.10
2023-01-23T06:31:50.923Z,-0.10
2023-01-23T06:34:17.918Z,-0.10
2023-01-23T06:36:46.342Z,-0.10
2023-01-23T06:39:15.332Z,-0.20
2023-01-23T06:41:43.188Z,-0.20
2023-01-23T06:44:10.418Z,-0.20
2023-01-23T06:46:37.913Z,-0.20
2023-01-23T06:49:06.385Z,-0.20
2023-01-23T06:51:34.018Z,-0.20
2023-01-23T06:54:01.000Z,-0.20
2023-01-23T06:56:28.115Z,-0.20
2023-01-23T06:58:55.121Z,-0.20
2023-01-23T07:01:22.442Z,-0.10
2023-01-23T07:03:49.445Z,-0.20
2023-01-23T07:06:16.603Z,-0.10
2023-01-23T07:08:43.625Z,-0.20
2023-01-23T07:11:10.695Z,-0.20
2023-01-23T07:13:37.953Z,-0.20
2023-01-23T07:16:05.760Z,-0.20
2023-01-23T07:18:33.376Z,-0.20
2023-01-23T07:21:01.042Z,-0.20
2023-01-23T07:23:28.098Z,-0.20
2023-01-23T07:26:09.775Z,-0.20
2023-01-23T07:28:37.971Z,-0.30
2023-01-23T07:31:05.909Z,-0.20
2023-01-23T07:33:33.348Z,-0.20
2023-01-23T07:36:00.520Z,-0.20
2023-01-23T07:38:28.149Z,-0.30
2023-01-23T07:40:58.417Z,-0.30
2023-01-23T07:43:25.971Z,-0.20
2023-01-23T07:45:53.314Z,-0.20
2023-01-23T07:48:20.471Z,-0.10
2023-01-23T07:50:47.409Z,-0.10
2023-01-23T07:53:14.444Z,-0.10
2023-01-23T07:55:41.496Z,-0.10
2023-01-23T07:58:08.750Z,0.00
2023-01-23T08:00:35.781Z,-0.10
2023-01-23T08:03:02.739Z,-0.10
2023-01-23T08:05:29.711Z,-0.10
2023-01-23T08:08:12.111Z,0.00
2023-01-23T08:10:40.421Z,0.00
2023-01-23T08:13:07.631Z,0.00
2023-01-23T08:15:34.655Z,0.10
2023-01-23T08:18:01.565Z,0.10
2023-01-23T08:20:28.622Z,0.20
2023-01-23T08:22:56.413Z,0.30
2023-01-23T08:25:23.483Z,0.40
2023-01-23T08:27:50.560Z,0.50
2023-01-23T08:30:19.154Z,0.50
2023-01-23T08:32:47.120Z,0.60
2023-01-23T08:35:14.360Z,0.70
2023-01-23T08:37:42.409Z,0.60
2023-01-23T08:40:10.125Z,0.60
2023-01-23T08:42:37.006Z,0.50
2023-01-23T08:45:04.830Z,0.60
2023-01-23T08:47:36.689Z,0.60
2023-01-23T08:50:05.469Z,0.60
2023-01-23T08:52:34.780Z,0.50
2023-01-23T08:55:01.898Z,0.50
2023-01-23T08:57:28.867Z,0.40
2023-01-23T08:59:55.819Z,0.30
2023-01-23T09:02:22.882Z,0.40
2023-01-23T09:04:50.641Z,0.50
2023-01-23T09:07:17.593Z,0.60
2023-01-23T09:09:44.551Z,0.70
2023-01-23T09:12:12.523Z,0.70
2023-01-23T09:14:39.498Z,0.70
2023-01-23T09:17:08.604Z,0.80
2023-01-23T09:19:35.632Z,0.80
2023-01-23T09:22:02.926Z,0.80
2023-01-23T09:24:29.833Z,0.80
2023-01-23T09:26:56.831Z,0.70
2023-01-23T09:29:23.778Z,0.70
2023-01-23T09:31:50.773Z,0.80
2023-01-23T09:34:17.848Z,0.70
2023-01-23T09:36:44.923Z,0.70
2023-01-23T09:39:12.168Z,0.80
2023-01-23T09:41:40.982Z,0.80
2023-01-23T09:44:38.169Z,0.90
2023-01-23T09:47:31.909Z,0.80
2023-01-23T09:50:15.088Z,0.90
2023-01-23T09:52:48.022Z,0.70
2023-01-23T09:55:27.218Z,0.70
2023-01-23T09:58:00.049Z,0.80
2023-01-23T10:00:32.464Z,0.80
2023-01-23T10:03:10.585Z,0.70
2023-01-23T10:06:07.500Z,0.70
2023-01-23T10:08:55.277Z,0.80
2023-01-23T10:11:25.268Z,1.10
2023-01-23T10:14:11.707Z,1.30
2023-01-23T10:16:57.912Z,1.30
2023-01-23T10:20:04.612Z,1.20
2023-01-23T10:22:36.220Z,1.00
2023-01-23T10:25:21.807Z,0.90
2023-01-23T10:27:50.815Z,0.90
2023-01-23T10:30:29.443Z,1.00
2023-01-23T10:33:17.529Z,1.00
2023-01-23T10:36:02.332Z,1.00
2023-01-23T10:39:02.850Z,1.00
2023-01-23T10:41:29.989Z,1.10
2023-01-23T10:43:57.730Z,1.20
2023-01-23T10:46:33.269Z,1.20
2023-01-23T10:49:01.491Z,1.30
2023-01-23T10:51:47.783Z,1.30
2023-01-23T10:54:33.133Z,1.20
2023-01-23T10:57:03.482Z,1.30
2023-01-23T10:59:33.513Z,1.40
2023-01-23T11:02:04.523Z,1.50
2023-01-23T11:04:36.473Z,1.60
2023-01-23T11:07:20.122Z,1.70
2023-01-23T11:09:55.381Z,1.70
2023-01-23T11:12:25.638Z,1.70
2023-01-23T11:15:11.280Z,1.70
2023-01-23T11:17:39.195Z,1.70
2023-01-23T11:20:24.492Z,1.80
2023-01-23T11:23:20.876Z,1.80
2023-01-23T11:25:50.095Z,1.80
2023-01-23T11:28:27.949Z,2.00
2023-01-23T11:31:22.525Z,2.00
2023-01-23T11:34:13.995Z,1.90
2023-01-23T11:36:59.528Z,1.80
2023-01-23T11:39:50.448Z,1.80
2023-01-23T11:42:18.760Z,1.70
2023-01-23T11:44:47.504Z,1.70
2023-01-23T11:47:51.887Z,1.70
2023-01-23T11:50:49.999Z,1.90
2023-01-23T11:53:49.446Z,1.90
2023-01-23T11:56:23.865Z,2.00
2023-01-23T11:59:32.593Z,2.00
2023-01-23T12:02:40.169Z,2.10
2023-01-23T12:05:16.453Z,2.10
2023-01-23T12:08:11.302Z,2.10
2023-01-23T12:11:13.419Z,2.10
2023-01-23T12:14:08.576Z,2.10
2023-01-23T12:16:48.541Z,2.20
2023-01-23T12:19:40.153Z,2.30
2023-01-23T12:22:11.018Z,2.50
2023-01-23T12:25:03.662Z,2.60
2023-01-23T12:27:36.627Z,2.60
2023-01-23T12:31:10.119Z,2.60
2023-01-23T12:34:03.101Z,2.50
2023-01-23T12:36:44.196Z,2.60
2023-01-23T12:39:45.124Z,2.70
2023-01-23T12:42:27.056Z,2.90
2023-01-23T12:44:53.931Z,2.90
2023-01-23T12:47:26.705Z,2.80
2023-01-23T12:50:15.413Z,2.70
2023-01-23T12:52:52.589Z,2.50
2023-01-23T12:55:55.591Z,2.30
2023-01-23T12:58:27.118Z,2.20
2023-01-23T13:01:20.275Z,2.10
2023-01-23T13:03:58.928Z,2.00
2023-01-23T13:06:49.217Z,2.10
2023-01-23T13:09:42.390Z,2.20
2023-01-23T13:12:26.433Z,2.40
2023-01-23T13:15:15.007Z,2.50
2023-01-23T13:17:57.850Z,2.50
2023-01-23T13:20:49.638Z,2.50
2023-01-23T13:23:28.503Z,2.50
2023-01-23T13:26:20.787Z,2.40
2023-01-23T13:28:57.796Z,2.40
2023-01-23T13:31:27.644Z,2.40
2023-01-23T13:34:06.608Z,2.40
2023-01-23T13:36:41.360Z,2.40
2023-01-23T13:39:17.700Z,2.20
2023-01-23T13:41:45.512Z,2.20
2023-01-23T13:44:40.266Z,2.10
2023-01-23T14:22:12.914Z,2.50
2023-01-23T14:24:44.461Z,2.50
2023-01-23T14:27:30.461Z,2.40
2023-01-23T14:30:03.132Z,2.40
2023-01-23T14:32:34.006Z,2.40
2023-01-23T14:35:01.663Z,2.40
2023-01-23T14:37:31.513Z,2.50
2023-01-23T14:40:09.743Z,2.40
2023-01-23T14:42:40.390Z,2.40
2023-01-23T14:45:12.957Z,2.30
2023-01-23T14:47:48.934Z,2.30
2023-01-23T14:50:24.230Z,2.20
2023-01-23T14:53:02.227Z,2.20
2023-01-23T14:55:33.134Z,2.20
2023-01-23T14:58:01.669Z,2.10
2023-01-23T15:00:29.607Z,2.10
2023-01-23T15:02:56.842Z,2.10
2023-01-23T15:05:28.010Z,2.00
2023-01-23T15:08:03.274Z,2.00
2023-01-23T15:10:51.579Z,2.00
2023-01-23T15:13:23.357Z,1.90
2023-01-23T15:15:57.879Z,1.90
2023-01-23T15:18:27.834Z,1.80
2023-01-23T15:20:59.625Z,1.90
2023-01-23T15:23:37.830Z,1.80
2023-01-23T15:26:25.456Z,1.80
2023-01-23T15:28:56.883Z,1.70
2023-01-23T15:31:29.338Z,1.70
2023-01-23T15:34:10.703Z,1.60
2023-01-23T15:36:38.129Z,1.50
2023-01-23T15:39:05.093Z,1.50
2023-01-23T15:41:50.878Z,1.50
2023-01-23T15:44:21.091Z,1.50
2023-01-23T15:46:48.278Z,1.50
2023-01-23T15:49:24.837Z,1.50
2023-01-23T15:51:54.565Z,1.40
2023-01-23T15:54:41.786Z,1.40
2023-01-23T15:57:11.995Z,1.30
2023-01-23T15:59:38.945Z,1.30
2023-01-23T16:02:29.949Z,1.30
2023-01-23T16:04:58.564Z,1.30
2023-01-23T16:07:35.934Z,1.20
2023-01-23T16:10:08.577Z,1.20
2023-01-23T16:12:39.067Z,1.20
2023-01-23T16:15:15.244Z,1.10
2023-01-23T16:17:42.661Z,1.10
2023-01-23T16:20:21.155Z,1.00
2023-01-23T16:22:54.332Z,1.00
2023-01-23T16:25:22.390Z,1.00
2023-01-23T16:27:50.592Z,1.00
2023-01-23T16:30:19.895Z,1.00
2023-01-23T16:32:47.199Z,1.00
2023-01-23T16:35:15.953Z,1.10
2023-01-23T16:37:45.797Z,1.10
2023-01-23T16:40:30.960Z,1.20
2023-01-23T16:43:00.491Z,1.20
2023-01-23T16:45:31.801Z,1.30
2023-01-23T16:47:59.804Z,1.30
2023-01-23T16:50:34.456Z,1.30
2023-01-23T16:53:22.195Z,1.30
2023-01-23T16:55:51.912Z,1.30
2023-01-23T16:58:23.041Z,1.30
2023-01-23T17:01:05.143Z,1.40
2023-01-23T17:03:36.530Z,1.40
2023-01-23T17:06:04.581Z,1.40
2023-01-23T17:08:44.047Z,1.40
2023-01-23T17:11:19.963Z,1.50
2023-01-23T17:13:48.386Z,1.50
2023-01-23T17:16:26.961Z,1.50
2023-01-23T17:18:57.393Z,1.50
2023-01-23T17:21:27.832Z,1.50
2023-01-23T17:23:55.189Z,1.50
2023-01-23T17:26:22.455Z,1.50
2023-01-23T17:28:52.918Z,1.50
2023-01-23T17:31:24.387Z,1.50
2023-01-23T17:33:55.938Z,1.50
2023-01-23T17:36:25.221Z,1.50
2023-01-23T17:38:56.133Z,1.50
2023-01-23T17:41:23.529Z,1.50
2023-01-23T17:43:54.121Z,1.60
2023-01-23T17:46:30.468Z,1.50
2023-01-23T17:48:58.173Z,1.60
2023-01-23T17:51:26.514Z,1.60
2023-01-23T17:53:55.595Z,1.60
2023-01-23T17:56:23.669Z,1.60
2023-01-23T17:59:19.594Z,1.60
2023-01-23T18:01:50.942Z,1.60
2023-01-23T18:04:22.147Z,1.60
2023-01-23T18:07:11.420Z,1.60
2023-01-23T18:09:41.343Z,1.60
2023-01-23T18:12:15.927Z,1.60
2023-01-23T18:14:56.105Z,1.60
2023-01-23T18:17:45.803Z,1.60
2023-01-23T18:20:25.706Z,1.60
2023-01-23T18:22:53.657Z,1.60
2023-01-23T18:27:50.732Z,1.50
2023-01-23T18:30:43.737Z,1.50
2023-01-23T18:33:33.464Z,1.50
2023-01-23T18:36:00.611Z,1.60
2023-01-23T18:38:57.054Z,1.50
2023-01-23T18:41:25.837Z,1.50
2023-01-23T18:44:11.222Z,1.50
2023-01-23T18:46:38.555Z,1.50
2023-01-23T18:49:06.123Z,1.50
2023-01-23T18:51:36.488Z,1.60
2023-01-23T18:54:21.980Z,1.50
2023-01-23T18:57:09.527Z,1.50
2023-01-23T18:59:54.985Z,1.50
2023-01-23T19:02:31.986Z,1.50
2023-01-23T19:05:05.498Z,1.50
2023-01-23T19:07:34.007Z,1.60
2023-01-23T19:10:02.185Z,1.50
2023-01-23T19:13:09.507Z,1.50
2023-01-23T19:15:49.001Z,1.50
2023-01-23T19:18:57.915Z,1.50
2023-01-23T19:21:28.660Z,1.50
2023-01-23T19:24:07.218Z,1.50
2023-01-23T19:26:39.078Z,1.50
2023-01-23T19:29:25.825Z,1.50
2023-01-23T19:32:07.249Z,1.50
2023-01-23T19:34:35.137Z,1.50
2023-01-23T19:37:03.048Z,1.50
2023-01-23T19:39:31.018Z,1.50
2023-01-23T19:41:59.700Z,1.50
2023-01-23T19:44:29.183Z,1.50
2023-01-23T19:46:56.811Z,1.50
2023-01-23T19:49:25.440Z,1.50
2023-01-23T19:51:52.921Z,1.50
2023-01-23T19:54:25.781Z,1.50
2023-01-23T19:56:53.267Z,1.50
2023-01-23T19:59:21.297Z,1.60
2023-01-23T20:01:51.663Z,1.60
2023-01-23T20:04:21.460Z,1.60
2023-01-23T20:06:52.051Z,1.50
2023-01-23T20:09:20.119Z,1.50
2023-01-23T20:11:47.766Z,1.60
2023-01-23T20:14:15.756Z,1.60
2023-01-23T20:16:43.664Z,1.50
2023-01-23T20:19:15.316Z,1.60
2023-01-23T20:21:42.799Z,1.60
2023-01-23T20:24:11.185Z,1.60
2023-01-23T20:26:39.216Z,1.60
2023-01-23T20:29:07.722Z,1.50
2023-01-23T20:31:44.147Z,1.60
2023-01-23T20:34:11.281Z,1.60
2023-01-23T20:36:38.832Z,1.60
2023-01-23T20:39:07.228Z,1.60
2023-01-23T20:41:35.333Z,1.60
2023-01-23T20:44:02.678Z,1.50
2023-01-23T20:46:29.980Z,1.60
2023-01-23T20:48:59.787Z,1.60
2023-01-23T20:51:27.650Z,1.60
2023-01-23T20:53:55.173Z,1.60
2023-01-23T20:56:28.012Z,1.60
2023-01-23T20:59:25.683Z,1.60
2023-01-23T21:02:11.729Z,1.60
2023-01-23T21:04:39.903Z,1.60
2023-01-23T21:07:07.242Z,1.60
2023-01-23T21:09:47.657Z,1.60
2023-01-23T21:12:15.250Z,1.50
2023-01-23T21:14:42.338Z,1.60
2023-01-23T21:17:09.985Z,1.60
2023-01-23T21:19:39.212Z,1.60
2023-01-23T21:22:07.941Z,1.60
2023-01-23T21:24:36.554Z,1.60
2023-01-23T21:27:04.599Z,1.60
2023-01-23T21:29:32.567Z,1.60
2023-01-23T21:32:00.244Z,1.60
2023-01-23T21:34:27.249Z,1.60
2023-01-23T21:36:54.456Z,1.60
2023-01-23T21:39:21.806Z,1.60
2023-01-23T21:41:48.774Z,1.50
2023-01-23T21:44:15.831Z,1.50
2023-01-23T21:46:42.866Z,1.60
2023-01-23T21:49:09.892Z,1.50
2023-01-23T21:51:36.921Z,1.50
2023-01-23T21:54:04.056Z,1.60
2023-01-23T21:56:31.119Z,1.60
2023-01-23T21:58:58.898Z,1.60
2023-01-23T22:01:33.253Z,1.60
2023-01-23T22:04:24.074Z,1.60
2023-01-23T22:06:55.993Z,1.60
2023-01-23T22:09:25.102Z,1.60
2023-01-23T22:11:52.262Z,1.60
2023-01-23T22:14:19.476Z,1.60
2023-01-23T22:16:49.670Z,1.50
2023-01-23T22:19:22.604Z,1.60
2023-01-23T22:21:51.382Z,1.60
2023-01-23T22:24:18.436Z,1.60
2023-01-23T22:26:45.469Z,1.60
2023-01-23T22:29:15.422Z,1.60
2023-01-23T22:31:43.107Z,1.60
2023-01-23T22:34:10.589Z,1.60
2023-01-23T22:36:38.887Z,1.70
2023-01-23T22:39:05.968Z,1.60
2023-01-23T22:41:33.064Z,1.60
2023-01-23T22:43:59.961Z,1.60
2023-01-23T22:46:28.212Z,1.60
2023-01-23T22:48:55.211Z,1.60
2023-01-23T22:51:24.927Z,1.60
2023-01-23T22:53:52.916Z,1.60
2023-01-23T22:56:20.031Z,1.60
2023-01-23T22:58:48.331Z,1.60
2023-01-23T23:01:16.283Z,1.60
2023-01-23T23:03:43.350Z,1.60
2023-01-23T23:06:13.103Z,1.60
2023-01-23T23:08:40.566Z,1.50
2023-01-23T23:11:13.999Z,1.60
2023-01-23T23:13:41.427Z,1.50
2023-01-23T23:16:11.678Z,1.50
2023-01-23T23:18:39.454Z,1.60
2023-01-23T23:21:09.683Z,1.50
2023-01-23T23:23:37.221Z,1.60
2023-01-23T23:26:05.576Z,1.50
2023-01-23T23:28:33.426Z,1.60
2023-01-23T23:31:00.722Z,1.50
2023-01-23T23:33:27.656Z,1.50
2023-01-23T23:35:54.669Z,1.50
2023-01-23T23:38:21.833Z,1.50
2023-01-23T23:40:56.748Z,1.60
2023-01-23T23:43:24.389Z,1.60
2023-01-23T23:45:54.049Z,1.50
2023-01-23T23:48:21.850Z,1.50
2023-01-23T23:50:49.104Z,1.50
2023-01-23T23:53:16.559Z,1.50
2023-01-23T23:55:43.614Z,1.50
2023-01-23T23:58:11.228Z,1.50
